createdAt,value
2023-03-02T00:00:24.918Z,67.52
2023-03-02T00:01:24.913Z,67.41
2023-03-02T00:02:24.930Z,67.44
2023-03-02T00:03:24.886Z,67.41
2023-03-02T00:04:24.880Z,67.41
2023-03-02T00:05:24.866Z,67.31
2023-03-02T00:06:24.840Z,67.31
2023-03-02T00:07:24.835Z,67.44
2023-03-02T00:08:24.818Z,67.44
2023-03-02T00:09:24.814Z,67.44
2023-03-02T00:10:24.820Z,67.34
2023-03-02T00:11:24.787Z,67.24
2023-03-02T00:12:24.772Z,67.24
2023-03-02T00:13:24.769Z,67.13
2023-03-02T00:14:24.785Z,66.82
2023-03-02T00:15:24.747Z,66.82
2023-03-02T00:16:24.793Z,66.61
2023-03-02T00:17:24.723Z,66.61
2023-03-02T00:18:24.708Z,66.51
2023-03-02T00:19:24.694Z,66.58
2023-03-02T00:20:24.701Z,66.51
2023-03-02T00:21:24.681Z,66.28
2023-03-02T00:22:24.664Z,66.18
2023-03-02T00:23:24.655Z,66.18
2023-03-02T00:24:24.644Z,66.31
2023-03-02T00:25:24.630Z,66.31
2023-03-02T00:26:24.638Z,66.41
2023-03-02T00:27:24.614Z,66.51
2023-03-02T00:28:24.602Z,66.51
2023-03-02T00:29:24.585Z,66.61
2023-03-02T00:30:24.583Z,66.61
2023-03-02T00:31:24.590Z,66.61
2023-03-02T00:32:24.650Z,66.72
2023-03-02T00:33:24.540Z,66.61
2023-03-02T00:34:24.533Z,66.51
2023-03-02T00:35:24.559Z,66.61
2023-03-02T00:36:24.497Z,66.61
2023-03-02T00:37:24.486Z,66.61
2023-03-02T00:38:24.492Z,66.61
2023-03-02T00:39:24.468Z,66.61
2023-03-02T00:40:24.459Z,66.51
2023-03-02T00:41:24.445Z,66.51
2023-03-02T00:42:24.510Z,66.61
2023-03-02T00:43:24.431Z,66.41
2023-03-02T00:44:24.410Z,66.51
2023-03-02T00:45:24.398Z,66.61
2023-03-02T00:46:24.526Z,66.72
2023-03-02T00:47:24.370Z,66.72
2023-03-02T00:48:24.371Z,67.03
2023-03-02T00:49:24.349Z,67.03
2023-03-02T00:50:24.347Z,67.34
2023-03-02T00:51:24.332Z,67.44
2023-03-02T00:52:24.313Z,67.86
2023-03-02T00:53:24.312Z,68.17
2023-03-02T00:54:24.297Z,68.17
2023-03-02T00:55:24.287Z,68.28
2023-03-02T00:56:24.287Z,68.38
2023-03-02T00:57:24.266Z,68.59
2023-03-02T00:58:24.279Z,68.69
2023-03-02T00:59:24.245Z,68.79
2023-03-02T01:00:24.239Z,69.11
2023-03-02T01:01:24.217Z,69.31
2023-03-02T01:02:24.368Z,69.52
2023-03-02T01:03:24.246Z,69.73
2023-03-02T01:04:24.184Z,69.94
2023-03-02T01:05:24.175Z,70.07
2023-03-02T01:06:24.158Z,70.17
2023-03-02T01:07:24.160Z,70.28
2023-03-02T01:08:24.141Z,70.28
2023-03-02T01:09:24.130Z,70.59
2023-03-02T01:10:24.121Z,70.80
2023-03-02T01:11:24.108Z,71.00
2023-03-02T01:12:24.098Z,71.11
2023-03-02T01:13:24.088Z,71.11
2023-03-02T01:14:24.100Z,71.31
2023-03-02T01:15:24.067Z,71.52
2023-03-02T01:16:24.106Z,71.63
2023-03-02T01:17:24.036Z,71.83
2023-03-02T01:18:24.036Z,71.94
2023-03-02T01:19:24.015Z,72.04
2023-03-02T01:20:24.009Z,72.25
2023-03-02T01:21:23.998Z,72.35
2023-03-02T01:22:23.983Z,72.46
2023-03-02T01:23:23.983Z,72.46
2023-03-02T01:24:23.968Z,72.56
2023-03-02T01:25:23.947Z,72.56
2023-03-02T01:26:23.936Z,72.80
2023-03-02T01:27:23.932Z,72.90
2023-03-02T01:28:23.916Z,73.01
2023-03-02T01:29:23.949Z,73.21
2023-03-02T01:30:23.918Z,73.42
2023-03-02T01:31:23.915Z,73.42
2023-03-02T01:32:23.946Z,73.42
2023-03-02T01:33:23.865Z,73.42
2023-03-02T01:34:23.878Z,73.42
2023-03-02T01:35:23.884Z,73.42
2023-03-02T01:36:23.924Z,73.52
2023-03-02T01:37:23.819Z,73.63
2023-03-02T01:38:23.878Z,73.73
2023-03-02T01:39:23.797Z,73.73
2023-03-02T01:40:23.785Z,73.84
2023-03-02T01:41:23.772Z,74.08
2023-03-02T01:42:23.756Z,74.08
2023-03-02T01:43:23.743Z,74.18
2023-03-02T01:44:23.741Z,74.18
2023-03-02T01:45:23.787Z,74.18
2023-03-02T01:46:23.739Z,74.29
2023-03-02T01:47:23.703Z,74.39
2023-03-02T01:48:23.691Z,74.39
2023-03-02T01:49:23.689Z,74.53
2023-03-02T01:50:23.664Z,74.73
2023-03-02T01:51:23.652Z,74.94
2023-03-02T01:52:23.647Z,75.25
2023-03-02T01:53:23.640Z,75.50
2023-03-02T01:54:23.617Z,75.70
2023-03-02T01:55:23.616Z,76.01
2023-03-02T01:56:23.596Z,76.22
2023-03-02T01:57:23.584Z,76.43
2023-03-02T01:58:23.573Z,76.67
2023-03-02T01:59:23.564Z,76.88
2023-03-02T02:00:23.553Z,76.88
2023-03-02T02:01:23.703Z,76.98
2023-03-02T02:02:23.567Z,77.09
2023-03-02T02:03:23.532Z,77.19
2023-03-02T02:04:23.635Z,77.30
2023-03-02T02:05:23.498Z,77.40
2023-03-02T02:06:23.497Z,77.50
2023-03-02T02:07:23.475Z,77.50
2023-03-02T02:08:23.468Z,77.61
2023-03-02T02:09:23.457Z,77.61
2023-03-02T02:10:23.438Z,77.71
2023-03-02T02:11:23.434Z,77.71
2023-03-02T02:12:23.425Z,77.81
2023-03-02T02:13:23.412Z,77.81
2023-03-02T02:14:23.398Z,77.92
2023-03-02T02:15:23.395Z,77.92
2023-03-02T02:16:23.531Z,78.02
2023-03-02T02:17:23.377Z,78.02
2023-03-02T02:18:23.369Z,78.16
2023-03-02T02:19:23.342Z,78.27
2023-03-02T02:20:23.341Z,78.37
2023-03-02T02:21:23.326Z,78.37
2023-03-02T02:22:23.309Z,78.47
2023-03-02T02:23:23.308Z,78.33
2023-03-02T02:24:23.283Z,78.33
2023-03-02T02:25:23.272Z,78.23
2023-03-02T02:26:23.270Z,78.23
2023-03-02T02:27:23.254Z,78.13
2023-03-02T02:28:23.238Z,78.13
2023-03-02T02:29:23.233Z,78.02
2023-03-02T02:30:23.237Z,77.92
2023-03-02T02:31:23.269Z,77.81
2023-03-02T02:32:23.355Z,77.92
2023-03-02T02:33:23.181Z,77.92
2023-03-02T02:34:23.190Z,77.92
2023-03-02T02:35:23.227Z,78.02
2023-03-02T02:36:23.151Z,78.13
2023-03-02T02:37:23.234Z,78.27
2023-03-02T02:38:23.134Z,78.37
2023-03-02T02:39:23.114Z,78.47
2023-03-02T02:40:23.116Z,78.58
2023-03-02T02:41:23.113Z,78.68
2023-03-02T02:42:23.084Z,78.68
2023-03-02T02:43:23.077Z,78.79
2023-03-02T02:44:23.055Z,78.89
2023-03-02T02:45:23.056Z,79.03
2023-03-02T02:46:23.037Z,79.13
2023-03-02T02:47:23.077Z,79.24
2023-03-02T02:48:23.016Z,79.34
2023-03-02T02:49:23.010Z,79.44
2023-03-02T02:50:23.031Z,79.55
2023-03-02T02:51:22.988Z,79.65
2023-03-02T02:52:22.994Z,79.76
2023-03-02T02:53:22.958Z,79.76
2023-03-02T02:54:22.963Z,79.87
2023-03-02T02:55:22.961Z,79.87
2023-03-02T02:56:22.932Z,79.97
2023-03-02T02:57:22.913Z,79.97
2023-03-02T02:58:22.899Z,80.07
2023-03-02T02:59:22.890Z,80.18
2023-03-02T03:00:22.891Z,80.28
2023-03-02T03:01:22.959Z,80.28
2023-03-02T03:02:22.872Z,80.38
2023-03-02T03:03:22.856Z,80.38
2023-03-02T03:04:22.904Z,80.38
2023-03-02T03:05:22.830Z,80.38
2023-03-02T03:06:22.836Z,80.49
2023-03-02T03:07:22.810Z,80.49
2023-03-02T03:08:22.787Z,80.59
2023-03-02T03:09:22.865Z,80.70
2023-03-02T03:10:22.765Z,80.80
2023-03-02T03:11:22.861Z,80.84
2023-03-02T03:12:22.752Z,80.94
2023-03-02T03:13:22.743Z,80.94
2023-03-02T03:14:22.724Z,81.04
2023-03-02T03:15:22.709Z,81.04
2023-03-02T03:16:22.731Z,81.04
2023-03-02T03:17:22.698Z,81.04
2023-03-02T03:18:22.674Z,81.04
2023-03-02T03:19:22.677Z,81.15
2023-03-02T03:20:22.665Z,81.25
2023-03-02T03:21:22.650Z,81.35
2023-03-02T03:22:22.664Z,81.46
2023-03-02T03:23:22.624Z,81.46
2023-03-02T03:24:22.646Z,81.56
2023-03-02T03:25:22.602Z,81.56
2023-03-02T03:26:22.584Z,81.46
2023-03-02T03:27:22.579Z,81.56
2023-03-02T03:28:22.564Z,81.56
2023-03-02T03:29:22.545Z,81.67
2023-03-02T03:30:22.543Z,81.67
2023-03-02T03:31:22.574Z,81.56
2023-03-02T03:32:22.587Z,81.56
2023-03-02T03:33:22.502Z,81.46
2023-03-02T03:34:22.489Z,81.46
2023-03-02T03:35:22.494Z,81.46
2023-03-02T03:36:22.478Z,81.46
2023-03-02T03:37:22.456Z,81.46
2023-03-02T03:38:22.490Z,81.46
2023-03-02T03:39:22.450Z,81.46
2023-03-02T03:40:22.429Z,81.46
2023-03-02T03:41:22.415Z,81.46
2023-03-02T03:42:22.405Z,81.46
2023-03-02T03:43:22.388Z,81.56
2023-03-02T03:44:22.376Z,81.56
2023-03-02T03:45:22.366Z,81.67
2023-03-02T03:46:22.405Z,81.67
2023-03-02T03:47:22.348Z,81.81
2023-03-02T03:48:22.335Z,81.92
2023-03-02T03:49:22.329Z,81.98
2023-03-02T03:50:22.306Z,82.08
2023-03-02T03:51:22.299Z,82.08
2023-03-02T03:52:22.306Z,82.08
2023-03-02T03:53:22.278Z,81.98
2023-03-02T03:54:22.282Z,82.08
2023-03-02T03:55:22.270Z,82.08
2023-03-02T03:56:22.279Z,82.08
2023-03-02T03:57:22.238Z,82.08
2023-03-02T03:58:22.259Z,82.19
2023-03-02T03:59:22.218Z,82.29
2023-03-02T04:00:22.204Z,82.40
2023-03-02T04:01:22.241Z,82.40
2023-03-02T04:02:22.270Z,82.29
2023-03-02T04:03:22.174Z,82.29
2023-03-02T04:04:22.158Z,82.29
2023-03-02T04:05:22.156Z,82.29
2023-03-02T04:06:22.134Z,82.29
2023-03-02T04:07:22.122Z,82.40
2023-03-02T04:08:22.114Z,82.50
2023-03-02T04:09:22.107Z,82.50
2023-03-02T04:10:22.160Z,82.50
2023-03-02T04:11:22.077Z,82.54
2023-03-02T04:12:22.056Z,82.54
2023-03-02T04:13:22.055Z,82.50
2023-03-02T04:14:22.047Z,82.61
2023-03-02T04:15:22.024Z,82.64
2023-03-02T04:16:22.022Z,82.64
2023-03-02T04:17:22.007Z,82.75
2023-03-02T04:18:21.990Z,82.75
2023-03-02T04:19:21.993Z,82.85
2023-03-02T04:20:21.985Z,82.85
2023-03-02T04:21:21.966Z,82.85
2023-03-02T04:22:21.957Z,82.85
2023-03-02T04:23:21.941Z,82.85
2023-03-02T04:24:21.938Z,82.81
2023-03-02T04:25:21.917Z,82.85
2023-03-02T04:26:22.032Z,82.85
2023-03-02T04:27:21.901Z,82.85
2023-03-02T04:28:21.881Z,82.85
2023-03-02T04:29:21.898Z,82.85
2023-03-02T04:30:21.879Z,82.85
2023-03-02T04:31:21.932Z,82.95
2023-03-02T04:32:21.954Z,83.06
2023-03-02T04:33:21.831Z,83.16
2023-03-02T04:34:21.832Z,83.27
2023-03-02T04:35:21.848Z,83.27
2023-03-02T04:36:21.797Z,83.37
2023-03-02T04:37:21.795Z,83.37
2023-03-02T04:38:21.792Z,83.41
2023-03-02T04:39:21.790Z,83.47
2023-03-02T04:40:21.760Z,83.52
2023-03-02T04:41:21.758Z,83.47
2023-03-02T04:42:21.853Z,83.47
2023-03-02T04:43:21.737Z,83.47
2023-03-02T04:44:21.737Z,83.47
2023-03-02T04:45:21.701Z,83.47
2023-03-02T04:46:21.755Z,83.47
2023-03-02T04:47:21.688Z,83.47
2023-03-02T04:48:21.673Z,83.62
2023-03-02T04:49:21.662Z,83.62
2023-03-02T04:50:21.660Z,83.72
2023-03-02T04:51:21.644Z,83.72
2023-03-02T04:52:21.635Z,83.83
2023-03-02T04:53:21.624Z,83.93
2023-03-02T04:54:21.603Z,83.93
2023-03-02T04:55:21.600Z,84.03
2023-03-02T04:56:21.590Z,84.03
2023-03-02T04:57:21.572Z,84.03
2023-03-02T04:58:21.590Z,84.03
2023-03-02T04:59:21.558Z,84.14
2023-03-02T05:00:21.546Z,84.03
2023-03-02T05:01:21.532Z,84.03
2023-03-02T05:02:21.614Z,84.03
2023-03-02T05:03:21.510Z,84.03
2023-03-02T05:04:21.624Z,84.03
2023-03-02T05:05:21.483Z,84.03
2023-03-02T05:06:21.468Z,84.03
2023-03-02T05:07:21.460Z,84.03
2023-03-02T05:08:21.452Z,83.93
2023-03-02T05:09:21.470Z,83.93
2023-03-02T05:10:21.436Z,83.93
2023-03-02T05:11:21.418Z,83.93
2023-03-02T05:12:21.401Z,83.93
2023-03-02T05:13:21.389Z,83.93
2023-03-02T05:14:21.407Z,83.93
2023-03-02T05:15:21.369Z,83.93
2023-03-02T05:16:21.422Z,83.93
2023-03-02T05:17:21.394Z,83.83
2023-03-02T05:18:21.346Z,83.83
2023-03-02T05:19:21.349Z,83.72
2023-03-02T05:20:21.317Z,83.62
2023-03-02T05:21:21.314Z,83.52
2023-03-02T05:22:21.297Z,83.41
2023-03-02T05:23:22.336Z,83.41
2023-03-02T05:24:21.273Z,83.41
2023-03-02T05:25:21.253Z,83.52
2023-03-02T05:26:23.250Z,83.52
2023-03-02T05:27:21.257Z,83.52
2023-03-02T05:28:21.238Z,83.52
2023-03-02T05:29:21.216Z,83.41
2023-03-02T05:30:21.246Z,83.52
2023-03-02T05:31:21.230Z,83.52
2023-03-02T05:32:21.247Z,83.52
2023-03-02T05:33:23.165Z,83.52
2023-03-02T05:34:21.159Z,83.58
2023-03-02T05:35:21.254Z,83.47
2023-03-02T05:36:23.175Z,83.58
2023-03-02T05:37:21.123Z,83.62
2023-03-02T05:38:21.121Z,83.72
2023-03-02T05:39:21.110Z,83.83
2023-03-02T05:40:21.099Z,83.83
2023-03-02T05:41:21.088Z,83.93
2023-03-02T05:42:21.078Z,83.93
2023-03-02T05:43:21.072Z,84.03
2023-03-02T05:44:21.050Z,84.03
2023-03-02T05:45:21.035Z,84.14
2023-03-02T05:46:22.135Z,84.14
2023-03-02T05:47:21.017Z,84.14
2023-03-02T05:48:20.999Z,84.03
2023-03-02T05:49:20.987Z,83.93
2023-03-02T05:50:20.980Z,83.89
2023-03-02T05:51:20.996Z,84.03
2023-03-02T05:52:20.959Z,84.00
2023-03-02T05:53:20.964Z,84.03
2023-03-02T05:54:20.938Z,84.14
2023-03-02T05:55:20.958Z,84.14
2023-03-02T05:56:22.910Z,84.35
2023-03-02T05:57:20.900Z,84.45
2023-03-02T05:58:20.903Z,84.45
2023-03-02T05:59:20.880Z,84.55
2023-03-02T06:00:20.865Z,84.66
2023-03-02T06:01:20.845Z,84.76
2023-03-02T06:02:20.922Z,84.86
2023-03-02T06:03:20.909Z,84.86
2023-03-02T06:04:20.818Z,84.91
2023-03-02T06:05:20.800Z,85.01
2023-03-02T06:06:20.806Z,85.11
2023-03-02T06:07:20.803Z,85.22
2023-03-02T06:08:20.767Z,85.11
2023-03-02T06:09:20.766Z,85.18
2023-03-02T06:10:20.756Z,85.22
2023-03-02T06:11:20.743Z,85.22
2023-03-02T06:12:20.725Z,85.32
2023-03-02T06:13:20.710Z,85.32
2023-03-02T06:14:20.710Z,85.32
2023-03-02T06:15:20.696Z,85.32
2023-03-02T06:16:20.794Z,85.32
2023-03-02T06:17:20.661Z,85.18
2023-03-02T06:18:20.676Z,84.97
2023-03-02T06:19:20.642Z,84.86
2023-03-02T06:20:20.627Z,84.86
2023-03-02T06:21:20.615Z,84.76
2023-03-02T06:22:20.617Z,84.55
2023-03-02T06:23:20.601Z,84.45
2023-03-02T06:24:20.583Z,84.35
2023-03-02T06:25:20.593Z,84.35
2023-03-02T06:26:20.563Z,84.14
2023-03-02T06:27:20.552Z,84.03
2023-03-02T06:28:20.542Z,83.83
2023-03-02T06:29:20.525Z,83.83
2023-03-02T06:30:20.520Z,83.72
2023-03-02T06:31:20.576Z,83.52
2023-03-02T06:32:20.678Z,83.41
2023-03-02T06:33:20.502Z,83.34
2023-03-02T06:34:20.565Z,83.24
2023-03-02T06:35:20.576Z,83.45
2023-03-02T06:36:20.531Z,83.34
2023-03-02T06:37:20.448Z,83.45
2023-03-02T06:38:20.433Z,83.55
2023-03-02T06:39:20.421Z,83.66
2023-03-02T06:40:20.413Z,83.69
2023-03-02T06:41:20.434Z,83.86
2023-03-02T06:42:20.380Z,83.86
2023-03-02T06:43:20.374Z,83.66
2023-03-02T06:44:20.371Z,83.59
2023-03-02T06:45:20.356Z,83.59
2023-03-02T06:46:20.443Z,83.69
2023-03-02T06:47:20.330Z,83.69
2023-03-02T06:48:20.322Z,83.69
2023-03-02T06:49:20.316Z,83.66
2023-03-02T06:50:20.314Z,83.55
2023-03-02T06:51:20.307Z,83.45
2023-03-02T06:52:20.273Z,83.45
2023-03-02T06:53:20.270Z,83.24
2023-03-02T06:54:21.670Z,83.14
2023-03-02T06:55:20.231Z,83.14
2023-03-02T06:56:20.225Z,83.09
2023-03-02T06:57:20.215Z,82.89
2023-03-02T06:58:20.196Z,82.68
2023-03-02T06:59:20.194Z,82.68
2023-03-02T07:00:20.185Z,82.68
2023-03-02T07:01:20.235Z,82.58
2023-03-02T07:02:20.165Z,82.58
2023-03-02T07:03:20.216Z,82.47
2023-03-02T07:04:20.130Z,82.47
2023-03-02T07:05:20.129Z,82.44
2023-03-02T07:06:20.125Z,82.23
2023-03-02T07:07:20.098Z,82.12
2023-03-02T07:08:20.082Z,81.70
2023-03-02T07:09:20.074Z,81.70
2023-03-02T07:10:20.070Z,81.60
2023-03-02T07:11:20.057Z,81.60
2023-03-02T07:12:20.031Z,81.60
2023-03-02T07:13:20.032Z,81.60
2023-03-02T07:14:20.054Z,81.50
2023-03-02T07:15:19.997Z,81.39
2023-03-02T07:16:20.023Z,81.29
2023-03-02T07:17:19.973Z,81.32
2023-03-02T07:18:19.963Z,81.43
2023-03-02T07:19:19.950Z,81.50
2023-03-02T07:20:19.952Z,81.39
2023-03-02T07:21:19.937Z,81.18
2023-03-02T07:22:20.060Z,81.18
2023-03-02T07:23:19.911Z,80.98
2023-03-02T07:24:19.905Z,80.87
2023-03-02T07:25:19.895Z,80.98
2023-03-02T07:26:19.881Z,80.98
2023-03-02T07:27:19.859Z,80.77
2023-03-02T07:28:19.859Z,80.81
2023-03-02T07:29:19.838Z,81.12
2023-03-02T07:30:19.833Z,81.08
2023-03-02T07:31:19.887Z,81.01
2023-03-02T07:32:19.850Z,81.12
2023-03-02T07:33:19.791Z,81.32
2023-03-02T07:34:19.777Z,81.39
2023-03-02T07:35:19.887Z,81.22
2023-03-02T07:36:19.755Z,81.22
2023-03-02T07:37:19.745Z,81.32
2023-03-02T07:38:19.764Z,81.64
2023-03-02T07:39:19.729Z,81.85
2023-03-02T07:40:19.718Z,81.85
2023-03-02T07:41:19.711Z,81.95
2023-03-02T07:42:19.694Z,82.16
2023-03-02T07:43:19.679Z,82.06
2023-03-02T07:44:19.682Z,82.02
2023-03-02T07:45:19.662Z,81.81
2023-03-02T07:46:19.708Z,81.50
2023-03-02T07:47:19.643Z,81.25
2023-03-02T07:48:19.631Z,80.94
2023-03-02T07:49:19.614Z,80.63
2023-03-02T07:50:19.620Z,80.73
2023-03-02T07:51:19.596Z,80.70
2023-03-02T07:52:19.583Z,80.49
2023-03-02T07:53:19.575Z,80.18
2023-03-02T07:54:19.664Z,80.11
2023-03-02T07:55:19.545Z,80.32
2023-03-02T07:56:19.539Z,80.42
2023-03-02T07:57:19.522Z,80.52
2023-03-02T07:58:19.526Z,80.73
2023-03-02T07:59:19.506Z,80.84
2023-03-02T08:00:19.520Z,81.11
2023-03-02T08:01:19.555Z,81.11
2023-03-02T08:02:19.466Z,81.18
2023-03-02T08:03:19.459Z,80.66
2023-03-02T08:04:19.442Z,80.00
2023-03-02T08:05:19.442Z,79.37
2023-03-02T08:06:19.428Z,79.06
2023-03-02T08:07:19.416Z,78.75
2023-03-02T08:08:19.400Z,78.58
2023-03-02T08:09:19.470Z,78.79
2023-03-02T08:10:19.407Z,79.20
2023-03-02T08:11:19.364Z,79.30
2023-03-02T08:12:19.365Z,79.47
2023-03-02T08:13:19.349Z,79.44
2023-03-02T08:14:19.336Z,78.92
2023-03-02T08:15:19.325Z,78.36
2023-03-02T08:16:19.374Z,77.95
2023-03-02T08:17:19.303Z,77.64
2023-03-02T08:18:19.312Z,77.53
2023-03-02T08:19:19.286Z,77.50
2023-03-02T08:20:19.269Z,77.09
2023-03-02T08:21:19.263Z,76.64
2023-03-02T08:22:19.246Z,76.12
2023-03-02T08:23:19.258Z,75.36
2023-03-02T08:24:19.228Z,74.53
2023-03-02T08:25:19.220Z,74.18
2023-03-02T08:26:19.228Z,73.77
2023-03-02T08:27:19.190Z,73.32
2023-03-02T08:28:19.191Z,72.91
2023-03-02T08:29:19.214Z,72.60
2023-03-02T08:30:19.153Z,72.39
2023-03-02T08:31:19.171Z,72.39
2023-03-02T08:32:19.160Z,72.29
2023-03-02T08:33:19.123Z,72.39
2023-03-02T08:34:19.115Z,72.49
2023-03-02T08:35:19.160Z,72.29
2023-03-02T08:36:19.114Z,72.14
2023-03-02T08:37:19.088Z,71.83
2023-03-02T08:38:19.068Z,71.60
2023-03-02T08:39:19.058Z,71.08
2023-03-02T08:40:19.042Z,70.77
2023-03-02T08:41:19.039Z,70.66
2023-03-02T08:42:19.056Z,70.77
2023-03-02T08:43:19.014Z,70.77
2023-03-02T08:44:19.002Z,70.91
2023-03-02T08:45:18.995Z,71.11
2023-03-02T08:46:19.115Z,71.11
2023-03-02T08:47:18.970Z,71.32
2023-03-02T08:48:18.951Z,71.45
2023-03-02T08:49:18.949Z,71.66
2023-03-02T08:50:18.933Z,72.00
2023-03-02T08:51:18.914Z,72.11
2023-03-02T08:52:18.911Z,72.52
2023-03-02T08:53:18.897Z,72.97
2023-03-02T08:54:18.880Z,73.15
2023-03-02T08:55:18.975Z,73.25
2023-03-02T08:56:18.862Z,73.35
2023-03-02T08:57:20.391Z,73.35
2023-03-02T08:58:18.871Z,73.56
2023-03-02T08:59:18.825Z,73.56
2023-03-02T09:00:18.815Z,73.32
2023-03-02T09:01:18.889Z,72.80
2023-03-02T09:02:18.795Z,72.70
2023-03-02T09:03:18.783Z,72.70
2023-03-02T09:04:18.819Z,72.70
2023-03-02T09:05:18.760Z,72.35
2023-03-02T09:06:18.757Z,71.94
2023-03-02T09:07:18.740Z,71.94
2023-03-02T09:08:18.739Z,71.94
2023-03-02T09:09:18.726Z,71.60
2023-03-02T09:10:18.704Z,71.39
2023-03-02T09:11:18.694Z,71.05
2023-03-02T09:12:18.684Z,70.94
2023-03-02T09:13:18.681Z,70.42
2023-03-02T09:14:18.719Z,70.29
2023-03-02T09:15:18.647Z,70.08
2023-03-02T09:16:18.731Z,69.87
2023-03-02T09:17:18.621Z,69.87
2023-03-02T09:18:18.607Z,70.08
2023-03-02T09:19:18.606Z,69.98
2023-03-02T09:20:18.604Z,70.08
2023-03-02T09:21:18.576Z,70.11
2023-03-02T09:22:18.574Z,70.19
2023-03-02T09:23:18.553Z,70.29
2023-03-02T09:24:18.542Z,70.19
2023-03-02T09:25:18.539Z,70.29
2023-03-02T09:26:18.520Z,70.29
2023-03-02T09:27:18.605Z,70.29
2023-03-02T09:28:18.501Z,70.19
2023-03-02T09:29:18.500Z,70.19
2023-03-02T09:30:18.587Z,69.98
2023-03-02T09:31:18.471Z,70.08
2023-03-02T09:32:18.622Z,70.11
2023-03-02T09:33:18.438Z,70.11
2023-03-02T09:34:18.436Z,70.32
2023-03-02T09:35:18.424Z,70.42
2023-03-02T09:36:18.403Z,70.46
2023-03-02T09:37:18.413Z,70.70
2023-03-02T09:38:18.480Z,71.53
2023-03-02T09:39:18.373Z,72.04
2023-03-02T09:40:18.369Z,72.11
2023-03-02T09:41:18.352Z,71.67
2023-03-02T09:42:18.347Z,71.25
2023-03-02T09:43:18.346Z,70.73
2023-03-02T09:44:18.320Z,70.63
2023-03-02T09:45:18.315Z,70.77
2023-03-02T09:46:18.360Z,71.22
2023-03-02T09:47:33.378Z,71.83
2023-03-02T09:48:18.280Z,72.14
2023-03-02T09:49:18.273Z,72.56
2023-03-02T09:50:18.252Z,72.63
2023-03-02T09:51:18.257Z,72.53
2023-03-02T09:52:18.230Z,72.11
2023-03-02T09:53:18.213Z,72.32
2023-03-02T09:54:20.578Z,72.25
2023-03-02T09:55:18.219Z,72.80
2023-03-02T09:56:18.197Z,73.01
2023-03-02T09:57:18.200Z,73.32
2023-03-02T09:58:18.157Z,73.56
2023-03-02T09:59:18.165Z,73.77
2023-03-02T10:00:20.131Z,73.98
2023-03-02T10:01:18.163Z,74.08
2023-03-02T10:02:18.238Z,74.18
2023-03-02T10:03:18.147Z,74.25
2023-03-02T10:04:18.211Z,74.15
2023-03-02T10:05:18.086Z,74.15
2023-03-02T10:06:18.076Z,74.25
2023-03-02T10:07:18.056Z,74.25
2023-03-02T10:08:18.053Z,73.94
2023-03-02T10:09:18.029Z,73.84
2023-03-02T10:10:18.015Z,73.60
2023-03-02T10:11:18.004Z,73.52
2023-03-02T10:12:17.995Z,73.73
2023-03-02T10:13:17.988Z,73.84
2023-03-02T10:14:17.983Z,73.70
2023-03-02T10:15:17.964Z,73.91
2023-03-02T10:16:18.147Z,73.70
2023-03-02T10:17:17.942Z,73.35
2023-03-02T10:18:17.969Z,72.94
2023-03-02T10:19:17.928Z,72.63
2023-03-02T10:20:17.940Z,72.63
2023-03-02T10:21:17.903Z,72.49
2023-03-02T10:22:17.883Z,72.08
2023-03-02T10:23:17.881Z,72.11
2023-03-02T10:24:17.866Z,72.53
2023-03-02T10:25:17.856Z,72.74
2023-03-02T10:26:17.836Z,72.60
2023-03-02T10:27:17.895Z,72.05
2023-03-02T10:28:17.812Z,71.32
2023-03-02T10:29:17.810Z,70.81
2023-03-02T10:30:17.788Z,70.77
2023-03-02T10:31:17.815Z,70.56
2023-03-02T10:32:17.817Z,70.12
2023-03-02T10:33:17.760Z,69.71
2023-03-02T10:34:17.791Z,69.40
2023-03-02T10:35:17.829Z,69.26
2023-03-02T10:36:20.218Z,69.06
2023-03-02T10:37:17.778Z,69.06
2023-03-02T10:38:17.702Z,69.06
2023-03-02T10:39:17.682Z,68.85
2023-03-02T10:40:17.676Z,68.75
2023-03-02T10:41:17.664Z,68.44
2023-03-02T10:42:17.717Z,68.54
2023-03-02T10:43:17.635Z,68.37
2023-03-02T10:44:17.628Z,69.32
2023-03-02T10:45:17.616Z,69.77
2023-03-02T10:46:17.675Z,70.08
2023-03-02T10:47:20.027Z,70.50
2023-03-02T10:48:17.585Z,70.47
2023-03-02T10:49:21.088Z,69.95
2023-03-02T10:50:17.587Z,70.05
2023-03-02T10:51:17.551Z,70.12
2023-03-02T10:52:17.541Z,69.81
2023-03-02T10:53:17.533Z,69.61
2023-03-02T10:54:17.516Z,69.81
2023-03-02T10:55:17.505Z,69.92
2023-03-02T10:56:17.493Z,69.47
2023-03-02T10:57:17.476Z,69.26
2023-03-02T10:58:17.466Z,69.26
2023-03-02T10:59:17.453Z,68.95
2023-03-02T11:00:17.466Z,68.92
2023-03-02T11:01:17.456Z,68.71
2023-03-02T11:02:17.440Z,68.37
2023-03-02T11:03:17.424Z,67.38
2023-03-02T11:04:17.490Z,66.66
2023-03-02T11:05:17.397Z,66.11
2023-03-02T11:06:17.398Z,65.91
2023-03-02T11:07:17.371Z,65.26
2023-03-02T11:08:17.384Z,64.82
2023-03-02T11:09:17.340Z,64.28
2023-03-02T11:10:17.353Z,63.66
2023-03-02T11:11:17.390Z,63.42
2023-03-02T11:12:17.359Z,63.01
2023-03-02T11:13:17.294Z,62.94
2023-03-02T11:14:17.326Z,63.25
2023-03-02T11:15:17.330Z,63.69
2023-03-02T11:16:17.375Z,63.79
2023-03-02T11:17:17.306Z,64.13
2023-03-02T11:18:17.307Z,65.19
2023-03-02T11:19:17.245Z,65.26
2023-03-02T11:20:17.225Z,64.64
2023-03-02T11:21:17.229Z,64.61
2023-03-02T11:22:17.227Z,64.38
2023-03-02T11:23:17.199Z,63.47
2023-03-02T11:24:17.191Z,62.51
2023-03-02T11:25:17.169Z,61.66
2023-03-02T11:26:17.151Z,60.94
2023-03-02T11:27:17.140Z,60.71
2023-03-02T11:28:17.138Z,60.58
2023-03-02T11:29:17.117Z,59.83
2023-03-02T11:30:17.104Z,59.58
2023-03-02T11:31:17.164Z,61.47
2023-03-02T11:32:17.186Z,63.38
2023-03-02T11:33:17.107Z,64.36
2023-03-02T11:34:18.442Z,65.74
2023-03-02T11:35:17.068Z,66.14
2023-03-02T11:36:17.060Z,66.38
2023-03-02T11:37:17.035Z,66.69
2023-03-02T11:38:17.045Z,66.56
2023-03-02T11:39:17.020Z,66.19
2023-03-02T11:40:16.994Z,64.35
2023-03-02T11:41:16.984Z,63.32
2023-03-02T11:42:17.023Z,62.67
2023-03-02T11:43:16.959Z,62.34
2023-03-02T11:44:16.957Z,61.79
2023-03-02T11:45:16.945Z,61.38
2023-03-02T11:46:21.695Z,61.18
2023-03-02T11:47:16.951Z,61.08
2023-03-02T11:48:16.898Z,61.65
2023-03-02T11:49:16.886Z,63.12
2023-03-02T11:50:16.882Z,63.86
2023-03-02T11:51:16.869Z,63.42
2023-03-02T11:52:17.080Z,63.09
2023-03-02T11:53:16.875Z,62.34
2023-03-02T11:54:16.860Z,62.00
2023-03-02T11:55:16.842Z,60.96
2023-03-02T11:56:16.821Z,58.91
2023-03-02T11:57:16.797Z,56.98
2023-03-02T11:58:16.801Z,55.38
2023-03-02T11:59:16.781Z,53.57
2023-03-02T12:00:16.769Z,52.42
2023-03-02T12:01:16.750Z,51.69
2023-03-02T12:02:16.779Z,51.25
2023-03-02T12:03:16.728Z,51.15
2023-03-02T12:04:16.726Z,50.52
2023-03-02T12:05:16.826Z,50.29
2023-03-02T12:06:16.697Z,50.29
2023-03-02T12:07:16.689Z,50.06
2023-03-02T12:08:16.672Z,49.66
2023-03-02T12:09:16.715Z,49.35
2023-03-02T12:10:16.683Z,49.45
2023-03-02T12:11:16.656Z,49.33
2023-03-02T12:12:16.635Z,48.41
2023-03-02T12:13:16.633Z,48.82
2023-03-02T12:14:16.613Z,48.70
2023-03-02T12:15:16.597Z,48.19
2023-03-02T12:16:16.588Z,48.09
2023-03-02T12:17:17.389Z,48.52
2023-03-02T12:18:16.579Z,48.41
2023-03-02T12:19:16.551Z,48.49
2023-03-02T12:20:16.548Z,48.09
2023-03-02T12:21:16.528Z,48.19
2023-03-02T12:22:16.526Z,48.09
2023-03-02T12:23:16.507Z,47.89
2023-03-02T12:24:16.496Z,47.89
2023-03-02T12:25:16.489Z,47.76
2023-03-02T12:26:16.587Z,47.96
2023-03-02T12:27:16.470Z,47.52
2023-03-02T12:28:16.531Z,46.78
2023-03-02T12:29:16.497Z,46.28
2023-03-02T12:30:16.510Z,46.58
2023-03-02T12:31:16.458Z,46.58
2023-03-02T12:32:16.419Z,46.25
2023-03-02T12:33:16.478Z,45.95
2023-03-02T12:34:16.422Z,45.75
2023-03-02T12:35:16.372Z,46.08
2023-03-02T12:36:16.355Z,46.08
2023-03-02T12:37:16.348Z,46.38
2023-03-02T12:38:16.363Z,46.17
2023-03-02T12:39:16.327Z,46.17
2023-03-02T12:40:16.315Z,46.28
2023-03-02T12:41:16.314Z,46.38
2023-03-02T12:42:16.323Z,46.09
2023-03-02T12:43:16.385Z,46.48
2023-03-02T12:44:16.286Z,46.40
2023-03-02T12:45:16.273Z,46.50
2023-03-02T12:46:16.367Z,46.60
2023-03-02T12:47:16.785Z,46.38
2023-03-02T12:48:16.262Z,46.16
2023-03-02T12:49:16.214Z,45.65
2023-03-02T12:50:16.200Z,46.05
2023-03-02T12:51:16.340Z,45.87
2023-03-02T12:52:16.321Z,46.17